createdAt,value
2023-02-01T00:00:15.710Z,71.33
2023-02-01T00:03:20.116Z,71.03
2023-02-01T00:06:22.424Z,72.16
2023-02-01T00:09:24.811Z,73.86
2023-02-01T00:12:27.007Z,73.50
2023-02-01T00:15:29.172Z,72.95
2023-02-01T00:18:31.473Z,72.96
2023-02-01T00:21:34.092Z,72.83
2023-02-01T00:24:36.208Z,73.12
2023-02-01T00:27:38.580Z,73.22
2023-02-01T00:30:40.837Z,73.43
2023-02-01T00:33:43.085Z,73.41
2023-02-01T00:36:46.097Z,73.82
2023-02-01T00:39:48.547Z,74.04
2023-02-01T00:42:53.146Z,73.77
2023-02-01T00:45:55.347Z,74.12
2023-02-01T00:48:57.699Z,74.06
2023-02-01T00:51:59.910Z,73.95
2023-02-01T00:55:02.270Z,73.93
2023-02-01T00:58:07.856Z,74.03
2023-02-01T01:01:22.315Z,73.53
2023-02-01T01:04:26.242Z,73.65
2023-02-01T01:07:29.021Z,73.79
2023-02-01T01:10:31.532Z,73.58
2023-02-01T01:13:33.976Z,73.56
2023-02-01T01:16:36.580Z,74.01
2023-02-01T01:19:38.883Z,73.44
2023-02-01T01:22:41.719Z,73.28
2023-02-01T01:25:43.884Z,74.39
2023-02-01T01:28:46.953Z,75.00
2023-02-01T01:31:49.329Z,77.27
2023-02-01T01:34:51.456Z,77.46
2023-02-01T01:37:53.609Z,77.29
2023-02-01T01:40:55.783Z,75.79
2023-02-01T01:44:01.120Z,75.64
2023-02-01T01:47:03.223Z,75.23
2023-02-01T01:50:08.362Z,75.44
2023-02-01T01:53:14.707Z,74.37
2023-02-01T01:56:17.223Z,73.39
2023-02-01T01:59:20.517Z,74.63
2023-02-01T02:02:22.909Z,73.81
2023-02-01T02:05:25.716Z,73.99
2023-02-01T02:08:29.708Z,73.94
2023-02-01T02:11:31.821Z,73.89
2023-02-01T02:14:35.294Z,73.82
2023-02-01T02:18:13.504Z,73.61
2023-02-01T02:21:27.499Z,74.06
2023-02-01T02:24:35.553Z,74.26
2023-02-01T02:27:52.626Z,74.41
2023-02-01T02:31:19.073Z,74.58
2023-02-01T02:34:33.858Z,76.23
2023-02-01T02:38:11.377Z,75.76
2023-02-01T02:42:13.657Z,76.10
2023-02-01T02:45:47.591Z,75.99
2023-02-01T02:49:02.010Z,75.18
2023-02-01T02:52:32.830Z,73.93
2023-02-01T02:55:37.977Z,74.51
2023-02-01T02:58:58.847Z,75.27
2023-02-01T03:02:20.087Z,75.32
2023-02-01T03:05:22.250Z,76.36
2023-02-01T03:08:29.522Z,76.00
2023-02-01T03:11:53.795Z,76.97
2023-02-01T03:15:02.027Z,77.31
2023-02-01T03:18:12.657Z,77.41
2023-02-01T03:21:36.731Z,77.64
2023-02-01T03:24:44.842Z,77.49
2023-02-01T03:27:52.091Z,77.36
2023-02-01T03:30:55.030Z,77.86
2023-02-01T03:33:57.412Z,76.78
2023-02-01T03:37:10.157Z,76.93
2023-02-01T03:40:15.421Z,76.87
2023-02-01T03:43:20.561Z,76.70
2023-02-01T03:46:33.802Z,76.54
2023-02-01T03:49:44.332Z,76.45
2023-02-01T03:52:52.571Z,76.88
2023-02-01T03:55:55.810Z,76.62
2023-02-01T03:59:01.003Z,76.50
2023-02-01T04:02:03.181Z,76.67
2023-02-01T04:05:05.560Z,77.16
2023-02-01T04:08:08.178Z,76.97
2023-02-01T04:11:10.755Z,76.69
2023-02-01T04:14:12.863Z,78.39
2023-02-01T04:17:15.009Z,78.01
2023-02-01T04:20:17.644Z,77.70
2023-02-01T04:23:19.765Z,77.76
2023-02-01T04:26:22.699Z,77.93
2023-02-01T04:29:24.886Z,78.15
2023-02-01T04:32:27.026Z,77.94
2023-02-01T04:35:29.177Z,78.28
2023-02-01T04:38:33.273Z,78.96
2023-02-01T04:41:35.588Z,78.43
2023-02-01T04:44:42.987Z,78.16
2023-02-01T04:47:45.102Z,78.20
2023-02-01T04:50:49.267Z,78.04
2023-02-01T04:53:51.357Z,78.52
2023-02-01T04:56:53.567Z,78.97
2023-02-01T04:59:56.221Z,79.99
2023-02-01T05:03:00.463Z,79.69
2023-02-01T05:06:05.158Z,78.56
2023-02-01T05:09:07.238Z,77.94
2023-02-01T05:12:29.919Z,78.50
2023-02-01T05:15:32.467Z,78.33
2023-02-01T05:18:34.649Z,78.79
2023-02-01T05:21:36.714Z,78.07
2023-02-01T05:24:38.786Z,77.63
2023-02-01T05:27:40.922Z,77.74
2023-02-01T05:30:43.216Z,76.94
2023-02-01T05:33:45.458Z,77.19
2023-02-01T05:36:47.715Z,76.88
2023-02-01T05:39:49.878Z,76.80
2023-02-01T05:42:51.942Z,76.46
2023-02-01T05:45:54.275Z,76.52
2023-02-01T05:48:56.398Z,76.42
2023-02-01T05:52:00.368Z,76.46
2023-02-01T05:55:02.813Z,76.33
2023-02-01T05:58:06.636Z,75.91
2023-02-01T06:01:08.832Z,76.19
2023-02-01T06:04:11.062Z,75.31
2023-02-01T06:07:13.366Z,75.32
2023-02-01T06:10:15.684Z,77.00
2023-02-01T06:13:17.808Z,76.09
2023-02-01T06:16:20.785Z,76.21
2023-02-01T06:19:23.610Z,77.74
2023-02-01T06:22:25.745Z,78.47
2023-02-01T06:25:27.930Z,78.50
2023-02-01T06:28:34.122Z,79.56
2023-02-01T06:31:36.350Z,79.38
2023-02-01T06:34:40.717Z,79.47
2023-02-01T06:37:43.347Z,79.61
2023-02-01T06:40:46.341Z,79.65
2023-02-01T06:43:48.759Z,79.54
2023-02-01T06:46:50.955Z,80.93
2023-02-01T06:49:53.117Z,80.44
2023-02-01T06:52:55.912Z,80.36
2023-02-01T06:56:03.808Z,80.69
2023-02-01T06:59:07.110Z,79.02
2023-02-01T07:02:12.547Z,77.81
2023-02-01T07:05:15.052Z,77.51
2023-02-01T07:08:17.312Z,77.64
2023-02-01T07:11:20.162Z,77.64
2023-02-01T07:14:22.506Z,77.27
2023-02-01T07:17:24.944Z,76.27
2023-02-01T07:20:27.098Z,75.65
2023-02-01T07:23:29.613Z,75.26
2023-02-01T07:26:31.900Z,75.33
2023-02-01T07:29:34.464Z,75.05
2023-02-01T07:32:37.982Z,75.46
2023-02-01T07:35:40.395Z,74.30
2023-02-01T07:38:43.032Z,73.74
2023-02-01T07:41:45.266Z,74.82
2023-02-01T07:44:47.771Z,74.44
2023-02-01T07:47:50.265Z,73.39
2023-02-01T07:51:04.990Z,73.64
2023-02-01T07:54:07.230Z,72.19
2023-02-01T07:57:09.909Z,72.45
2023-02-01T08:00:32.177Z,72.80
2023-02-01T08:03:34.405Z,73.08
2023-02-01T08:06:36.511Z,73.67
2023-02-01T08:09:38.654Z,72.06
2023-02-01T08:12:42.271Z,71.98
2023-02-01T08:15:44.342Z,70.49
2023-02-01T08:18:46.873Z,70.96
2023-02-01T08:21:49.959Z,70.34
2023-02-01T08:24:52.824Z,69.74
2023-02-01T08:27:55.972Z,68.29
2023-02-01T08:30:58.126Z,67.65
2023-02-01T08:34:02.695Z,66.21
2023-02-01T08:37:04.830Z,67.23
2023-02-01T08:40:07.933Z,67.20
2023-02-01T08:43:12.947Z,67.52
2023-02-01T08:46:18.680Z,67.47
2023-02-01T08:49:20.863Z,66.49
2023-02-01T08:52:23.675Z,66.24
2023-02-01T08:55:26.289Z,66.00
2023-02-01T08:58:28.526Z,66.73
2023-02-01T09:01:31.193Z,67.11
2023-02-01T09:04:33.744Z,67.84
2023-02-01T09:07:36.060Z,67.75
2023-02-01T09:10:38.616Z,67.78
2023-02-01T09:13:41.348Z,67.79
2023-02-01T09:16:43.839Z,67.70
2023-02-01T09:19:46.158Z,68.12
2023-02-01T09:22:48.487Z,67.33
2023-02-01T09:25:52.596Z,67.56
2023-02-01T09:28:54.675Z,67.91
2023-02-01T09:32:04.085Z,67.46
2023-02-01T09:35:07.108Z,67.42
2023-02-01T09:38:09.290Z,67.29
2023-02-01T09:41:56.457Z,66.49
2023-02-01T09:45:16.012Z,65.98
2023-02-01T09:48:29.481Z,64.73
2023-02-01T09:51:44.775Z,65.02
2023-02-01T09:55:16.437Z,64.24
2023-02-01T09:58:26.455Z,63.99
2023-02-01T10:01:30.424Z,63.03
2023-02-01T10:04:34.597Z,63.36
2023-02-01T10:07:42.597Z,62.24
2023-02-01T10:10:48.827Z,61.63
2023-02-01T10:14:14.255Z,60.37
2023-02-01T10:17:35.238Z,57.76
2023-02-01T10:20:46.034Z,55.87
2023-02-01T10:24:01.178Z,55.21
2023-02-01T10:27:14.799Z,53.31
2023-02-01T10:30:22.738Z,53.86
2023-02-01T10:33:25.364Z,53.45
2023-02-01T10:36:33.418Z,55.16
2023-02-01T10:39:35.649Z,54.27
2023-02-01T10:42:37.923Z,52.47
2023-02-01T10:45:43.548Z,52.76
2023-02-01T10:48:47.114Z,53.19
2023-02-01T10:52:16.206Z,52.86
2023-02-01T10:55:44.703Z,50.21
2023-02-01T10:58:48.925Z,48.47
2023-02-01T11:01:59.630Z,46.33
2023-02-01T11:05:11.578Z,47.17
2023-02-01T11:08:19.934Z,44.96
2023-02-01T11:11:23.397Z,46.44
2023-02-01T11:14:25.496Z,46.22
2023-02-01T11:17:38.042Z,46.26
2023-02-01T11:20:41.745Z,46.48
2023-02-01T11:23:46.688Z,45.37
2023-02-01T11:26:49.515Z,46.17
2023-02-01T11:29:54.548Z,46.41
2023-02-01T11:32:57.091Z,46.68
2023-02-01T11:36:15.432Z,44.92
2023-02-01T11:39:29.603Z,43.79
2023-02-01T11:42:31.787Z,44.69
2023-02-01T11:45:36.031Z,45.20
2023-02-01T11:48:38.200Z,45.82
2023-02-01T11:51:56.243Z,45.49
2023-02-01T11:55:32.570Z,45.36
2023-02-01T11:58:37.590Z,42.82
2023-02-01T12:01:57.843Z,42.47
2023-02-01T12:05:20.925Z,42.79
2023-02-01T12:08:42.589Z,43.67
2023-02-01T12:12:14.353Z,43.94
2023-02-01T12:15:31.957Z,44.95
2023-02-01T12:18:34.005Z,46.47
2023-02-01T12:21:54.736Z,46.40
2023-02-01T12:25:05.040Z,47.15
2023-02-01T12:28:16.001Z,47.27
2023-02-01T12:31:39.477Z,46.51
2023-02-01T12:34:57.485Z,45.63
2023-02-01T12:37:59.531Z,45.57
2023-02-01T12:41:11.503Z,46.47
2023-02-01T12:44:29.320Z,44.95
2023-02-01T12:47:41.255Z,45.96
2023-02-01T12:50:50.333Z,46.34
2023-02-01T12:54:06.121Z,46.39
2023-02-01T12:57:18.638Z,45.76
2023-02-01T13:00:56.216Z,45.98
2023-02-01T13:04:13.358Z,46.00
2023-02-01T13:07:21.706Z,46.70
2023-02-01T13:10:44.890Z,47.61
2023-02-01T13:14:08.686Z,48.61
2023-02-01T13:17:16.115Z,48.83
2023-02-01T13:20:36.382Z,49.30
2023-02-01T13:23:40.779Z,49.90
2023-02-01T13:26:43.534Z,50.10
2023-02-01T13:30:06.657Z,49.88
2023-02-01T13:33:52.774Z,50.46
2023-02-01T13:37:21.029Z,50.42
2023-02-01T13:40:40.645Z,50.94
2023-02-01T13:43:53.965Z,49.85
2023-02-01T13:47:00.853Z,48.79
2023-02-01T13:50:14.498Z,47.36
2023-02-01T13:53:28.562Z,47.73
2023-02-01T13:56:41.669Z,47.03
2023-02-01T13:59:46.896Z,47.69
2023-02-01T14:03:02.729Z,48.39
2023-02-01T14:06:18.253Z,49.21
2023-02-01T14:09:33.487Z,49.32
2023-02-01T14:12:46.546Z,48.23
2023-02-01T14:16:04.101Z,48.20
2023-02-01T14:19:10.555Z,48.49
2023-02-01T14:22:15.658Z,48.70
2023-02-01T14:25:19.407Z,48.47
2023-02-01T14:28:28.089Z,47.96
2023-02-01T14:31:46.586Z,47.51
2023-02-01T14:34:48.846Z,47.96
2023-02-01T14:38:00.539Z,47.35
2023-02-01T14:41:31.042Z,48.05
2023-02-01T14:44:38.042Z,48.25
2023-02-01T14:47:44.294Z,49.20
2023-02-01T14:50:49.175Z,49.98
2023-02-01T14:53:52.299Z,50.78
2023-02-01T14:56:55.620Z,50.53
2023-02-01T15:00:09.913Z,51.27
2023-02-01T15:03:56.681Z,52.21
2023-02-01T15:07:05.508Z,53.09
2023-02-01T15:10:08.104Z,54.04
2023-02-01T15:13:21.179Z,54.87
2023-02-01T15:16:25.898Z,55.68
2023-02-01T15:19:31.829Z,56.32
2023-02-01T15:22:34.221Z,56.97
2023-02-01T15:25:42.267Z,57.35
2023-02-01T15:28:44.625Z,58.58
2023-02-01T15:31:50.005Z,59.17
2023-02-01T15:34:52.333Z,59.68
2023-02-01T15:38:14.326Z,60.25
2023-02-01T15:41:22.297Z,61.74
2023-02-01T15:44:35.527Z,62.79
2023-02-01T15:47:37.759Z,63.85
2023-02-01T15:50:41.396Z,65.23
2023-02-01T15:53:52.255Z,65.36
2023-02-01T15:56:56.635Z,66.31
2023-02-01T16:00:09.151Z,66.70
2023-02-01T16:03:51.146Z,67.84
2023-02-01T16:07:02.504Z,69.10
2023-02-01T16:10:24.458Z,69.23
2023-02-01T16:13:29.461Z,70.56
2023-02-01T16:16:31.714Z,71.21
2023-02-01T16:19:34.078Z,71.52
2023-02-01T16:22:36.728Z,71.17
2023-02-01T16:25:40.483Z,72.04
2023-02-01T16:28:46.522Z,72.86
2023-02-01T16:31:50.793Z,73.21
2023-02-01T16:34:54.954Z,73.22
2023-02-01T16:37:59.201Z,74.29
2023-02-01T16:41:04.587Z,74.44
2023-02-01T16:44:08.504Z,74.56
2023-02-01T16:47:23.972Z,75.37
2023-02-01T16:50:34.427Z,75.62
2023-02-01T16:53:53.199Z,75.71
2023-02-01T16:56:56.619Z,76.76
2023-02-01T17:00:11.663Z,77.35
2023-02-01T17:03:26.747Z,78.09
2023-02-01T17:06:33.797Z,78.70
2023-02-01T17:09:38.326Z,78.27
2023-02-01T17:12:42.403Z,79.00
2023-02-01T17:15:52.699Z,78.48
2023-02-01T17:18:59.902Z,78.59
2023-02-01T17:22:05.211Z,79.00
2023-02-01T17:25:17.817Z,79.52
2023-02-01T17:28:21.067Z,79.34
2023-02-01T17:31:24.530Z,78.33
2023-02-01T17:34:28.076Z,78.55
2023-02-01T17:37:35.254Z,78.75
2023-02-01T17:40:38.661Z,78.22
2023-02-01T17:43:42.187Z,78.46
2023-02-01T17:46:45.294Z,79.62
2023-02-01T17:49:52.933Z,80.27
2023-02-01T17:53:03.745Z,80.86
2023-02-01T17:56:19.836Z,81.15
2023-02-01T17:59:23.538Z,80.92
2023-02-01T18:02:26.948Z,79.98
2023-02-01T18:05:45.780Z,79.80
2023-02-01T18:08:48.650Z,80.48
2023-02-01T18:12:04.948Z,79.20
2023-02-01T18:15:35.201Z,80.09
2023-02-01T18:18:41.601Z,80.11
2023-02-01T18:21:45.931Z,80.19
2023-02-01T18:24:49.518Z,79.52
2023-02-01T18:28:00.540Z,79.27
2023-02-01T18:31:10.391Z,78.95
2023-02-01T18:34:17.338Z,78.35
2023-02-01T18:37:21.710Z,78.69
2023-02-01T18:40:36.581Z,78.24
2023-02-01T18:43:44.519Z,76.72
2023-02-01T18:46:51.287Z,77.97
2023-02-01T18:49:56.192Z,78.18
2023-02-01T18:53:01.524Z,78.82
2023-02-01T18:56:05.284Z,79.32
2023-02-01T18:59:09.387Z,79.33
2023-02-01T19:02:14.115Z,79.55
2023-02-01T19:05:24.369Z,79.98
2023-02-01T19:08:28.247Z,79.63
2023-02-01T19:11:35.186Z,79.43
2023-02-01T19:14:40.021Z,79.11
2023-02-01T19:17:49.648Z,79.01
2023-02-01T19:21:01.572Z,79.86
2023-02-01T19:24:06.019Z,80.24
2023-02-01T19:27:11.451Z,80.11
2023-02-01T19:33:52.915Z,80.52
2023-02-01T19:36:57.246Z,81.22
2023-02-01T19:40:00.740Z,80.78
2023-02-01T19:43:04.565Z,80.82
2023-02-01T19:46:08.559Z,81.23
2023-02-01T19:49:12.850Z,81.32
2023-02-01T19:52:16.583Z,81.71
2023-02-01T19:55:22.907Z,82.18
2023-02-01T19:58:27.235Z,82.88
2023-02-01T20:01:34.026Z,82.20
2023-02-01T20:04:37.940Z,82.50
2023-02-01T20:07:44.690Z,83.30
2023-02-01T20:10:50.073Z,84.18
2023-02-01T20:13:57.224Z,83.79
2023-02-01T20:17:01.030Z,83.62
2023-02-01T20:20:05.523Z,83.87
2023-02-01T20:23:09.674Z,84.66
2023-02-01T20:26:15.752Z,85.05
2023-02-01T20:29:20.095Z,84.58
2023-02-01T20:32:24.571Z,84.39
2023-02-01T20:35:32.473Z,85.23
2023-02-01T20:38:36.274Z,85.85
2023-02-01T20:41:40.168Z,85.86
2023-02-01T20:45:16.685Z,85.48
2023-02-01T20:48:21.006Z,86.07
2023-02-01T20:51:25.700Z,86.59
2023-02-01T20:54:31.846Z,86.69
2023-02-01T20:57:35.571Z,86.98
2023-02-01T21:00:39.573Z,87.08
2023-02-01T21:03:43.267Z,86.93
2023-02-01T21:06:46.333Z,86.98
2023-02-01T21:09:48.651Z,87.71
2023-02-01T21:13:01.059Z,87.80
2023-02-01T21:16:11.463Z,88.17
2023-02-01T21:19:15.614Z,88.79
2023-02-01T21:22:20.547Z,88.39
2023-02-01T21:25:23.985Z,88.96
2023-02-01T21:28:27.940Z,89.17
2023-02-01T21:31:32.651Z,89.29
2023-02-01T21:34:35.932Z,89.76
2023-02-01T21:37:39.224Z,89.00
2023-02-01T21:40:43.119Z,89.77
2023-02-01T21:43:45.656Z,89.76
2023-02-01T21:46:48.326Z,89.53
2023-02-01T21:49:50.870Z,89.57
2023-02-01T21:52:53.555Z,89.80
2023-02-01T21:55:55.687Z,89.83
2023-02-01T21:58:57.878Z,89.73
2023-02-01T22:02:00.126Z,90.09
2023-02-01T22:05:05.412Z,90.23
2023-02-01T22:08:07.866Z,90.55
2023-02-01T22:11:10.631Z,90.73
2023-02-01T22:14:13.669Z,90.69
2023-02-01T22:17:16.244Z,90.67
2023-02-01T22:20:19.539Z,90.90
2023-02-01T22:23:21.701Z,91.16
2023-02-01T22:26:24.753Z,91.22
2023-02-01T22:29:28.066Z,90.98
2023-02-01T22:32:30.120Z,91.43
2023-02-01T22:35:32.724Z,91.59
2023-02-01T22:38:35.955Z,91.50
2023-02-01T22:41:38.268Z,91.87
2023-02-01T22:44:41.414Z,92.36
2023-02-01T22:47:44.858Z,91.97
2023-02-01T22:50:47.264Z,92.76
2023-02-01T22:53:57.148Z,92.53
2023-02-01T22:57:00.361Z,92.82
2023-02-01T23:00:02.684Z,93.21
2023-02-01T23:03:07.601Z,93.11
2023-02-01T23:06:09.818Z,93.21
2023-02-01T23:09:25.451Z,92.81
2023-02-01T23:12:28.284Z,93.27
2023-02-01T23:15:30.698Z,92.79
2023-02-01T23:18:33.028Z,93.11
2023-02-01T23:21:35.715Z,92.80
2023-02-01T23:24:37.818Z,92.81
2023-02-01T23:27:40.773Z,92.40
2023-02-01T23:30:42.935Z,92.58
2023-02-01T23:33:46.305Z,92.68
2023-02-01T23:36:48.340Z,92.32
2023-02-01T23:39:53.473Z,92.43
2023-02-01T23:43:15.329Z,92.45
2023-02-01T23:46:18.735Z,92.30
2023-02-01T23:49:21.197Z,92.40
2023-02-01T23:52:23.330Z,92.32
2023-02-01T23:55:25.823Z,92.10
2023-02-01T23:58:28.146Z,91.96
